createdAt,value
2017-08-05T00:01:41.898Z,12.57
2017-08-05T00:04:10.741Z,8.95
2017-08-05T00:06:39.635Z,10.30
2017-08-05T00:09:08.526Z,8.68
2017-08-05T00:11:37.409Z,7.62
2017-08-05T00:14:06.301Z,8.88
2017-08-05T00:16:35.180Z,9.13
2017-08-05T00:19:04.843Z,8.27
2017-08-05T00:21:33.741Z,17.55
2017-08-05T00:24:02.635Z,10.77
2017-08-05T00:26:31.539Z,10.50
2017-08-05T00:29:00.425Z,12.15
2017-08-05T00:31:29.300Z,6.45
2017-08-05T00:33:58.194Z,8.02
2017-08-05T00:36:27.087Z,7.55
2017-08-05T00:38:55.952Z,7.22
2017-08-05T00:41:24.835Z,10.77
2017-08-05T00:43:53.720Z,6.75
2017-08-05T00:46:22.618Z,9.70
2017-08-05T00:48:51.496Z,6.75
2017-08-05T00:51:20.394Z,11.63
2017-08-05T00:53:49.280Z,7.62
2017-08-05T00:56:18.153Z,9.52
2017-08-05T00:58:47.802Z,8.65
2017-08-05T01:01:16.684Z,5.28
2017-08-05T01:03:45.579Z,5.70
2017-08-05T01:06:14.470Z,6.35
2017-08-05T01:08:43.361Z,15.88
2017-08-05T01:11:12.248Z,9.57
2017-08-05T01:13:41.130Z,8.05
2017-08-05T01:16:10.032Z,12.82
2017-08-05T01:18:38.931Z,8.38
2017-08-05T01:21:07.816Z,3.85
2017-08-05T01:23:36.671Z,6.80
2017-08-05T01:26:06.325Z,6.95
2017-08-05T01:28:35.209Z,12.65
2017-08-05T01:31:04.088Z,8.70
2017-08-05T01:33:32.985Z,7.65
2017-08-05T01:36:01.875Z,8.23
2017-08-05T01:38:30.775Z,16.73
2017-08-05T01:40:59.661Z,10.27
2017-08-05T01:43:28.541Z,8.88
2017-08-05T01:45:57.437Z,8.38
2017-08-05T01:48:26.316Z,9.63
2017-08-05T01:50:55.961Z,9.25
2017-08-05T01:53:24.853Z,8.15
2017-08-05T01:55:53.708Z,9.00
2017-08-05T01:58:23.370Z,10.80
2017-08-05T02:00:51.550Z,5.97
2017-08-05T02:03:20.446Z,11.50
2017-08-05T02:05:49.337Z,8.43
2017-08-05T02:08:18.222Z,7.35
2017-08-05T02:10:46.413Z,12.75
2017-08-05T02:13:15.308Z,6.65
2017-08-05T02:15:44.193Z,7.90
2017-08-05T02:18:13.090Z,10.75
2017-08-05T02:20:41.972Z,10.18
2017-08-05T02:23:10.855Z,7.70
2017-08-05T02:25:39.716Z,8.15
2017-08-05T02:28:08.607Z,6.90
2017-08-05T02:30:37.494Z,7.05
2017-08-05T02:33:06.392Z,20.15
2017-08-05T02:35:35.284Z,6.72
2017-08-05T02:38:04.161Z,9.95
2017-08-05T02:40:33.038Z,8.10
2017-08-05T02:43:02.721Z,12.43
2017-08-05T02:45:31.608Z,13.55
2017-08-05T02:48:00.494Z,10.43
2017-08-05T02:50:29.385Z,8.27
2017-08-05T02:52:58.277Z,8.68
2017-08-05T02:55:27.172Z,7.87
2017-08-05T02:57:56.063Z,6.78
2017-08-05T03:00:24.958Z,9.75
2017-08-05T03:02:53.851Z,14.68
2017-08-05T03:05:22.724Z,8.57
2017-08-05T03:07:51.630Z,11.43
2017-08-05T03:10:20.522Z,6.12
2017-08-05T03:12:49.384Z,12.20
2017-08-05T03:15:18.274Z,7.47
2017-08-05T03:17:47.161Z,8.35
2017-08-05T03:20:16.061Z,14.43
2017-08-05T03:22:44.953Z,10.18
2017-08-05T03:25:13.834Z,8.85
2017-08-05T03:27:42.713Z,10.45
2017-08-05T03:30:11.590Z,5.22
2017-08-05T03:32:41.251Z,8.80
2017-08-05T03:35:10.141Z,8.75
2017-08-05T03:37:39.996Z,11.85
2017-08-05T03:40:08.837Z,9.82
2017-08-05T03:42:37.731Z,10.70
2017-08-05T03:45:06.619Z,7.50
2017-08-05T03:47:35.140Z,6.50
2017-08-05T03:50:04.017Z,9.35
2017-08-05T03:52:32.902Z,8.85
2017-08-05T03:55:01.764Z,13.40
2017-08-05T03:57:30.652Z,12.65
2017-08-05T03:59:59.549Z,11.68
2017-08-05T04:02:28.436Z,15.73
2017-08-05T04:04:57.313Z,9.60
2017-08-05T04:07:26.171Z,14.75
2017-08-05T04:09:55.079Z,19.17
2017-08-05T04:12:24.746Z,11.02
2017-08-05T04:14:53.634Z,14.10
2017-08-05T04:17:22.493Z,11.35
2017-08-05T04:19:51.395Z,15.95
2017-08-05T04:22:24.427Z,7.95
2017-08-05T04:25:01.889Z,9.25
2017-08-05T04:27:35.568Z,8.70
2017-08-05T04:30:07.547Z,8.60
2017-08-05T04:32:37.359Z,11.25
2017-08-05T04:35:06.244Z,6.03
2017-08-05T04:37:35.125Z,8.25
2017-08-05T04:40:04.029Z,11.23
2017-08-05T04:42:32.919Z,7.55
2017-08-05T04:45:01.802Z,8.48
2017-08-05T04:47:30.703Z,9.02
2017-08-05T04:50:00.099Z,13.75
2017-08-05T04:52:28.995Z,9.68
2017-08-05T04:54:57.901Z,12.52
2017-08-05T04:57:26.794Z,8.70
2017-08-05T04:59:55.741Z,11.98
2017-08-05T05:02:24.712Z,11.23
2017-08-05T05:04:53.580Z,8.98
2017-08-05T05:10:16.936Z,16.37
2017-08-05T05:12:46.542Z,9.82
2017-08-05T05:15:15.435Z,7.65
2017-08-05T05:17:44.136Z,9.88
2017-08-05T05:20:13.017Z,9.38
2017-08-05T05:22:42.498Z,7.82
2017-08-05T05:25:11.396Z,11.27
2017-08-05T05:27:41.045Z,8.27
2017-08-05T05:30:09.939Z,6.97
2017-08-05T05:32:38.827Z,7.82
2017-08-05T05:35:07.714Z,14.27
2017-08-05T05:37:36.601Z,6.15
2017-08-05T05:40:05.499Z,8.27
2017-08-05T05:42:35.658Z,13.00
2017-08-05T05:45:05.273Z,10.43
2017-08-05T05:47:34.156Z,5.53
2017-08-05T05:52:58.578Z,7.45
2017-08-05T05:55:27.480Z,10.60
2017-08-05T05:57:56.368Z,9.00
2017-08-05T06:00:26.022Z,13.23
2017-08-05T06:02:54.915Z,7.03
2017-08-05T06:05:24.320Z,4.40
2017-08-05T06:07:53.210Z,6.93
2017-08-05T06:10:22.107Z,6.22
2017-08-05T06:12:50.992Z,6.85
2017-08-05T06:15:19.881Z,11.95
2017-08-05T06:17:48.725Z,9.93
2017-08-05T06:20:17.633Z,9.43
2017-08-05T06:22:51.058Z,7.93
2017-08-05T06:31:06.776Z,10.85
2017-08-05T06:33:35.670Z,8.57
2017-08-05T06:36:04.573Z,7.93
2017-08-05T06:38:33.458Z,9.25
2017-08-05T06:41:02.335Z,7.80
2017-08-05T06:43:31.217Z,10.00
2017-08-05T06:46:00.861Z,8.43
2017-08-05T06:48:29.757Z,10.27
2017-08-05T06:50:58.636Z,6.65
2017-08-05T06:53:27.519Z,7.50
2017-08-05T06:55:56.385Z,7.45
2017-08-05T06:58:26.062Z,11.48
2017-08-05T07:00:54.957Z,3.62
2017-08-05T07:03:23.857Z,7.20
2017-08-05T07:05:52.711Z,6.68
2017-08-05T07:08:21.674Z,13.68
2017-08-05T07:10:50.574Z,5.95
2017-08-05T07:13:19.486Z,10.45
2017-08-05T07:15:48.369Z,10.95
2017-08-05T07:18:17.913Z,6.18
2017-08-05T07:23:36.877Z,9.27
2017-08-05T07:26:06.718Z,6.40
2017-08-05T07:28:37.659Z,9.88
2017-08-05T07:34:00.145Z,7.95
2017-08-05T07:36:29.808Z,5.25
2017-08-05T07:38:58.714Z,5.85
2017-08-05T07:41:28.302Z,5.07
2017-08-05T07:43:57.202Z,5.37
2017-08-05T07:46:26.107Z,3.22
2017-08-05T07:48:55.582Z,4.62
2017-08-05T07:51:24.472Z,5.10
2017-08-05T07:53:53.364Z,7.28
2017-08-05T07:56:22.259Z,4.93
2017-08-05T07:58:52.528Z,6.25
2017-08-05T08:01:21.810Z,4.03
2017-08-05T08:03:50.705Z,3.62
2017-08-05T08:06:19.599Z,4.80
2017-08-05T08:11:51.233Z,3.92
2017-08-05T08:14:20.909Z,6.32
2017-08-05T08:16:51.283Z,3.92
2017-08-05T08:19:20.188Z,2.83
2017-08-05T08:21:49.090Z,6.43
2017-08-05T08:24:17.983Z,4.53
2017-08-05T08:26:47.411Z,6.73
2017-08-05T08:29:16.074Z,2.50
2017-08-05T08:31:46.379Z,5.23
2017-08-05T08:45:58.812Z,4.63
2017-08-05T08:48:34.527Z,3.70
2017-08-05T08:51:03.927Z,3.53
2017-08-05T08:53:32.575Z,2.40
2017-08-05T08:56:01.196Z,6.03
2017-08-05T08:58:30.584Z,2.90
2017-08-05T09:00:59.200Z,5.90
2017-08-05T09:03:28.578Z,5.60
2017-08-05T09:05:57.206Z,2.17
2017-08-05T09:08:25.817Z,4.37
2017-08-05T09:10:54.395Z,5.50
2017-08-05T09:13:23.018Z,7.00
2017-08-05T09:15:51.637Z,2.80
2017-08-05T09:18:21.101Z,3.27
2017-08-05T09:20:49.727Z,2.93
2017-08-05T09:23:18.368Z,4.60
2017-08-05T09:25:46.999Z,3.83
2017-08-05T09:28:15.616Z,7.33
2017-08-05T09:30:44.230Z,4.37
2017-08-05T09:33:12.858Z,2.97
2017-08-05T09:38:33.346Z,2.30
2017-08-05T09:41:02.986Z,6.63
2017-08-05T09:43:31.678Z,3.80
2017-08-05T09:46:00.379Z,6.10
2017-08-05T09:51:06.846Z,5.17
2017-08-05T09:53:35.934Z,2.43
2017-08-05T09:56:05.526Z,6.57
2017-08-05T09:58:34.150Z,1.77
2017-08-05T10:01:02.743Z,3.63
2017-08-05T10:03:31.377Z,5.87
2017-08-05T10:05:59.997Z,1.67
2017-08-05T10:08:28.656Z,4.50
2017-08-05T10:10:58.040Z,2.27
2017-08-05T10:13:26.668Z,3.53
2017-08-05T10:15:55.453Z,2.10
2017-08-05T10:18:25.196Z,3.93
2017-08-05T10:20:54.820Z,4.13
2017-08-05T10:23:23.451Z,3.83
2017-08-05T10:25:52.076Z,3.60
2017-08-05T10:28:20.692Z,4.00
2017-08-05T10:30:49.308Z,1.90
2017-08-05T10:33:18.665Z,3.10
2017-08-05T10:35:47.303Z,2.33
2017-08-05T10:38:15.934Z,4.77
2017-08-05T10:40:44.554Z,1.20
2017-08-05T10:43:13.904Z,3.07
2017-08-05T10:45:42.501Z,1.30
2017-08-05T10:48:11.143Z,2.90
2017-08-05T10:50:39.774Z,2.03
2017-08-05T10:53:08.401Z,2.20
2017-08-05T10:55:36.978Z,2.50
2017-08-05T10:58:05.601Z,4.03
2017-08-05T11:00:34.217Z,4.37
2017-08-05T11:03:02.811Z,4.30
2017-08-05T11:05:31.429Z,1.67
2017-08-05T11:08:00.813Z,9.07
2017-08-05T11:10:29.450Z,3.67
2017-08-05T11:12:58.079Z,2.90
2017-08-05T11:15:26.689Z,1.37
2017-08-05T11:17:55.310Z,2.10
2017-08-05T11:20:23.947Z,2.13
2017-08-05T11:22:52.573Z,4.67
2017-08-05T11:25:21.214Z,2.27
2017-08-05T11:27:49.838Z,2.53
2017-08-05T11:30:18.453Z,2.60
2017-08-05T11:32:47.077Z,2.80
2017-08-05T11:35:15.692Z,5.43
2017-08-05T11:37:44.285Z,1.47
2017-08-05T11:40:12.913Z,5.03
2017-08-05T11:42:41.534Z,2.80
2017-08-05T11:45:10.148Z,4.63
2017-08-05T11:47:38.778Z,2.00
2017-08-05T11:50:07.397Z,2.13
2017-08-05T11:52:36.013Z,2.03
2017-08-05T11:55:04.634Z,3.43
2017-08-05T11:57:33.263Z,2.13
2017-08-05T12:00:01.882Z,3.43
2017-08-05T12:02:30.518Z,1.63
2017-08-05T12:04:59.155Z,3.63
2017-08-05T12:07:27.743Z,3.63
2017-08-05T12:09:56.373Z,1.87
2017-08-05T12:12:24.814Z,1.40
2017-08-05T12:14:53.437Z,2.20
2017-08-05T12:17:22.048Z,2.03
2017-08-05T12:19:50.669Z,4.30
2017-08-05T12:22:19.298Z,1.83
2017-08-05T12:24:47.916Z,2.27
2017-08-05T12:27:16.546Z,2.03
2017-08-05T12:29:45.155Z,2.70
2017-08-05T12:32:14.536Z,1.60
2017-08-05T12:34:43.174Z,2.40
2017-08-05T12:37:11.798Z,3.40
2017-08-05T12:39:40.429Z,1.83
2017-08-05T12:42:09.044Z,3.83
2017-08-05T12:44:37.664Z,1.90
2017-08-05T12:47:06.289Z,3.43
2017-08-05T12:49:34.910Z,2.70
2017-08-05T12:52:03.512Z,3.97
2017-08-05T12:54:32.136Z,1.40
2017-08-05T12:57:00.727Z,2.30
2017-08-05T12:59:29.345Z,1.50
2017-08-05T13:01:57.968Z,6.20
2017-08-05T13:04:27.369Z,2.20
2017-08-05T13:06:56.001Z,4.53
2017-08-05T13:09:24.633Z,4.10
2017-08-05T13:11:53.265Z,2.37
2017-08-05T13:14:21.886Z,4.10
2017-08-05T13:16:50.514Z,2.63
2017-08-05T13:19:19.137Z,2.87
2017-08-05T13:21:47.756Z,3.80
2017-08-05T13:24:16.343Z,3.07
2017-08-05T13:26:44.967Z,3.10
2017-08-05T13:29:13.598Z,2.20
2017-08-05T13:31:42.225Z,4.80
2017-08-05T13:34:10.859Z,6.33
2017-08-05T13:36:39.447Z,2.30
2017-08-05T13:39:07.887Z,2.63
2017-08-05T13:41:36.510Z,2.90
2017-08-05T13:44:05.110Z,2.30
2017-08-05T13:46:33.725Z,2.93
2017-08-05T13:49:03.118Z,2.47
2017-08-05T13:51:31.745Z,1.83
2017-08-05T13:54:00.381Z,3.00
2017-08-05T13:56:29.781Z,2.80
2017-08-05T13:58:58.406Z,2.50
2017-08-05T14:01:27.031Z,2.30
2017-08-05T14:03:55.934Z,2.90
2017-08-05T14:06:24.608Z,2.90
2017-08-05T14:08:53.236Z,3.70
2017-08-05T14:11:22.594Z,6.57
2017-08-05T14:13:51.187Z,6.10
2017-08-05T14:16:19.801Z,2.07
2017-08-05T14:18:49.190Z,2.90
2017-08-05T14:21:17.806Z,1.97
2017-08-05T14:23:47.197Z,2.87
2017-08-05T14:26:16.578Z,2.90
2017-08-05T14:28:45.188Z,2.67
2017-08-05T14:31:13.886Z,3.80
2017-08-05T14:33:43.283Z,3.90
2017-08-05T14:36:12.685Z,2.60
2017-08-05T14:38:41.318Z,2.53
2017-08-05T14:41:09.943Z,1.50
2017-08-05T14:43:38.570Z,1.57
2017-08-05T14:46:07.194Z,1.47
2017-08-05T14:48:35.820Z,3.87
2017-08-05T14:51:05.204Z,2.50
2017-08-05T14:53:33.653Z,4.20
2017-08-05T14:56:02.290Z,3.60
2017-08-05T14:58:31.694Z,2.47
2017-08-05T15:01:01.108Z,3.33
2017-08-05T15:03:29.720Z,4.83
2017-08-05T15:05:58.321Z,2.70
2017-08-05T15:08:26.950Z,1.73
2017-08-05T15:10:56.354Z,2.43
2017-08-05T15:13:25.758Z,6.23
2017-08-05T15:15:55.163Z,1.90
2017-08-05T15:18:23.789Z,4.27
2017-08-05T15:20:52.382Z,1.80
2017-08-05T15:23:20.997Z,2.60
2017-08-05T15:25:49.644Z,2.30
2017-08-05T15:28:18.270Z,2.20
2017-08-05T15:30:46.906Z,3.87
2017-08-05T15:33:15.525Z,3.13
2017-08-05T15:35:44.145Z,3.57
2017-08-05T15:41:00.754Z,2.50
2017-08-05T15:43:29.378Z,7.60
2017-08-05T15:45:58.014Z,2.50
2017-08-05T15:48:26.653Z,3.87
2017-08-05T15:50:55.303Z,2.10
2017-08-05T15:53:24.705Z,3.90
2017-08-05T15:55:55.461Z,2.40
2017-08-05T16:03:46.782Z,3.90
2017-08-05T16:06:16.238Z,4.37
2017-08-05T16:23:40.310Z,9.67
2017-08-05T16:26:37.033Z,5.80
2017-08-05T16:29:10.545Z,7.27
2017-08-05T16:31:39.171Z,4.00
2017-08-05T16:39:49.317Z,6.20
2017-08-05T16:44:59.484Z,9.80
2017-08-05T16:47:28.887Z,5.23
2017-08-05T16:49:58.277Z,5.30
2017-08-05T16:52:27.189Z,5.03
2017-08-05T16:54:56.573Z,3.90
2017-08-05T16:57:25.202Z,4.57
2017-08-05T16:59:53.818Z,4.60
2017-08-05T17:02:23.041Z,14.67
2017-08-05T17:10:47.990Z,5.15
2017-08-05T17:13:16.893Z,6.05
2017-08-05T17:15:45.781Z,5.60
2017-08-05T17:18:14.669Z,4.43
2017-08-05T17:20:43.560Z,5.87
2017-08-05T17:29:29.833Z,6.82
2017-08-05T17:32:00.938Z,7.43
2017-08-05T17:34:29.850Z,4.47
2017-08-05T17:36:58.739Z,7.25
2017-08-05T17:39:27.634Z,4.18
2017-08-05T17:41:56.541Z,5.12
2017-08-05T17:44:25.442Z,13.57
2017-08-05T17:46:54.322Z,6.22
2017-08-05T17:49:23.209Z,7.70
2017-08-05T17:51:52.099Z,8.25
2017-08-05T17:54:21.001Z,5.97
2017-08-05T17:56:49.887Z,6.37
2017-08-05T17:59:18.766Z,9.82
2017-08-05T18:01:47.670Z,12.13
2017-08-05T18:04:16.954Z,7.65
2017-08-05T18:06:45.878Z,11.38
2017-08-05T18:09:16.446Z,7.18
2017-08-05T18:11:45.396Z,7.55
2017-08-05T18:14:14.276Z,4.47
2017-08-05T18:16:43.152Z,6.00
2017-08-05T18:19:12.046Z,7.95
2017-08-05T18:21:41.609Z,7.22
2017-08-05T18:24:10.507Z,7.62
2017-08-05T18:26:39.403Z,8.10
2017-08-05T18:29:08.289Z,9.40
2017-08-05T18:31:37.195Z,6.10
2017-08-05T18:34:06.506Z,7.72
2017-08-05T18:36:35.389Z,6.85
2017-08-05T18:39:04.086Z,7.60
2017-08-05T18:41:32.978Z,12.02
2017-08-05T18:44:01.957Z,8.65
2017-08-05T18:46:30.868Z,7.35
2017-08-05T18:48:59.729Z,11.68
2017-08-05T18:51:28.621Z,7.95
2017-08-05T18:53:57.826Z,7.07
2017-08-05T18:56:27.779Z,8.35
2017-08-05T18:58:56.660Z,9.13
2017-08-05T19:01:26.525Z,8.98
2017-08-05T19:03:56.211Z,6.62
2017-08-05T19:06:24.781Z,10.70
2017-08-05T19:08:53.676Z,7.82
2017-08-05T19:11:22.532Z,11.68
2017-08-05T19:13:51.421Z,10.80
2017-08-05T19:16:20.323Z,10.68
2017-08-05T19:18:49.254Z,10.82
2017-08-05T19:21:18.146Z,9.02
2017-08-05T19:23:48.521Z,11.60
2017-08-05T19:26:17.410Z,11.95
2017-08-05T19:28:46.297Z,9.68
2017-08-05T19:31:15.197Z,7.90
2017-08-05T19:33:44.573Z,11.05
2017-08-05T19:36:13.593Z,9.63
2017-08-05T19:38:42.298Z,8.73
2017-08-05T19:41:12.592Z,15.15
2017-08-05T19:43:41.529Z,7.60
2017-08-05T19:46:10.427Z,8.75
2017-08-05T19:48:39.315Z,6.53
2017-08-05T19:51:08.280Z,10.68
2017-08-05T19:53:37.166Z,8.15
2017-08-05T19:56:06.045Z,7.90
2017-08-05T19:58:35.502Z,12.77
2017-08-05T20:01:04.394Z,8.57
2017-08-05T20:03:33.299Z,13.18
2017-08-05T20:06:05.644Z,7.12
2017-08-05T20:08:34.829Z,6.68
2017-08-05T20:11:04.563Z,13.93
2017-08-05T20:13:33.445Z,7.18
2017-08-05T20:16:02.380Z,8.40
2017-08-05T20:18:31.930Z,7.90
2017-08-05T20:21:00.857Z,11.15
2017-08-05T20:23:29.751Z,9.32
2017-08-05T20:25:58.769Z,11.40
2017-08-05T20:28:28.447Z,10.00
2017-08-05T20:30:57.349Z,8.57
2017-08-05T20:33:26.264Z,10.52
2017-08-05T20:35:55.910Z,8.15
2017-08-05T20:38:24.821Z,8.23
2017-08-05T20:40:53.680Z,11.27
2017-08-05T20:43:22.534Z,7.20
2017-08-05T20:45:51.384Z,7.90
2017-08-05T20:48:20.254Z,9.50
2017-08-05T20:50:49.570Z,8.43
2017-08-05T20:53:18.459Z,9.18
2017-08-05T20:55:47.348Z,9.50
2017-08-05T20:58:16.229Z,10.40
2017-08-05T21:00:45.113Z,7.93
2017-08-05T21:03:14.010Z,10.27
2017-08-05T21:05:42.904Z,9.63
2017-08-05T21:08:11.782Z,9.63
2017-08-05T21:10:40.689Z,12.25
2017-08-05T21:13:10.654Z,17.37
2017-08-05T21:15:39.558Z,16.48
2017-08-05T21:18:08.471Z,18.77
2017-08-05T21:20:37.385Z,26.90
2017-08-05T21:23:06.290Z,17.77
2017-08-05T21:25:35.191Z,19.12
2017-08-05T21:28:04.071Z,22.58
2017-08-05T21:30:32.968Z,20.45
2017-08-05T21:33:01.870Z,22.67
2017-08-05T21:35:30.764Z,23.00
2017-08-05T21:37:59.670Z,19.77
2017-08-05T21:40:28.575Z,17.90
2017-08-05T21:42:57.470Z,19.27
2017-08-05T21:45:26.342Z,20.55
2017-08-05T21:47:55.251Z,17.73
2017-08-05T21:50:24.161Z,18.20
2017-08-05T21:52:53.821Z,10.50
2017-08-05T21:55:22.718Z,13.45
2017-08-05T21:57:51.612Z,11.82
2017-08-05T22:00:20.150Z,10.55
2017-08-05T22:02:49.046Z,8.45
2017-08-05T22:05:17.945Z,8.73
2017-08-05T22:07:46.841Z,16.33
2017-08-05T22:10:15.743Z,12.27
2017-08-05T22:12:44.625Z,9.75
2017-08-05T22:15:13.520Z,10.80
2017-08-05T22:17:42.215Z,13.10
2017-08-05T22:20:11.118Z,16.52
2017-08-05T22:22:40.022Z,11.40
2017-08-05T22:25:08.912Z,10.10
2017-08-05T22:27:37.807Z,16.80
2017-08-05T22:30:06.701Z,13.40
2017-08-05T22:32:35.601Z,22.80
2017-08-05T22:35:04.497Z,10.45
2017-08-05T22:37:33.397Z,13.15
2017-08-05T22:40:02.281Z,14.75
2017-08-05T22:42:31.172Z,19.92
2017-08-05T22:45:00.065Z,12.10
2017-08-05T22:47:29.005Z,16.50
2017-08-05T22:49:57.889Z,13.70
2017-08-05T22:52:26.773Z,14.73
2017-08-05T22:54:55.661Z,12.80
2017-08-05T22:57:24.556Z,14.55
2017-08-05T22:59:53.459Z,15.48
2017-08-05T23:02:22.344Z,10.95
2017-08-05T23:04:51.235Z,11.68
2017-08-05T23:07:20.134Z,14.68
2017-08-05T23:09:49.034Z,14.52
2017-08-05T23:12:17.901Z,18.62
2017-08-05T23:14:46.798Z,14.93
2017-08-05T23:17:15.693Z,15.32
2017-08-05T23:19:44.582Z,12.13
2017-08-05T23:22:13.493Z,15.35
2017-08-05T23:24:42.395Z,11.32
2017-08-05T23:27:11.285Z,14.77
2017-08-05T23:29:40.152Z,16.85
2017-08-05T23:32:09.011Z,14.18
2017-08-05T23:34:37.915Z,18.50
2017-08-05T23:37:07.569Z,18.27
2017-08-05T23:39:36.461Z,13.82
2017-08-05T23:42:05.360Z,15.85
2017-08-05T23:44:34.249Z,12.63
2017-08-05T23:47:03.153Z,11.00
2017-08-05T23:49:32.065Z,14.75
2017-08-05T23:52:00.934Z,15.18
2017-08-05T23:54:29.840Z,13.62
2017-08-05T23:56:58.732Z,13.00
2017-08-05T23:59:27.624Z,11.25
